createdAt,value
2019-04-16T00:03:25.405Z,9.97
2019-04-16T00:09:39.195Z,9.90
2019-04-16T00:15:44.952Z,10.67
2019-04-16T00:22:24.871Z,9.53
2019-04-16T00:28:31.407Z,9.97
2019-04-16T00:34:37.611Z,9.93
2019-04-16T00:40:43.692Z,10.83
2019-04-16T00:46:49.512Z,10.13
2019-04-16T00:52:55.229Z,10.67
2019-04-16T00:59:00.917Z,10.73
2019-04-16T01:05:07.008Z,10.77
2019-04-16T01:11:12.752Z,10.73
2019-04-16T01:17:18.513Z,10.63
2019-04-16T01:23:24.234Z,10.13
2019-04-16T01:29:33.603Z,11.03
2019-04-16T01:36:14.596Z,11.13
2019-04-16T01:42:23.382Z,11.30
2019-04-16T01:48:28.531Z,10.67
2019-04-16T01:54:34.265Z,11.43
2019-04-16T02:00:41.373Z,11.33
2019-04-16T02:06:47.085Z,11.20
2019-04-16T02:12:52.897Z,10.90
2019-04-16T02:19:01.288Z,11.13
2019-04-16T02:25:07.277Z,11.60
2019-04-16T02:31:15.678Z,11.00
2019-04-16T02:37:20.704Z,12.00
2019-04-16T02:43:27.231Z,11.47
2019-04-16T02:49:32.933Z,11.47
2019-04-16T02:56:00.310Z,10.43
2019-04-16T03:02:44.118Z,10.43
2019-04-16T03:08:50.353Z,10.97
2019-04-16T03:15:00.861Z,10.60
2019-04-16T03:21:03.778Z,10.80
2019-04-16T03:27:10.046Z,10.67
2019-04-16T03:33:16.459Z,11.20
2019-04-16T03:39:22.966Z,10.93
2019-04-16T03:45:28.898Z,10.87
2019-04-16T03:51:35.644Z,11.23
2019-04-16T03:57:42.214Z,11.20
2019-04-16T04:03:47.921Z,12.17
2019-04-16T04:09:54.452Z,11.87
2019-04-16T04:16:01.617Z,12.00
2019-04-16T04:22:07.944Z,12.93
2019-04-16T04:28:18.514Z,11.80
2019-04-16T04:34:21.988Z,11.63
2019-04-16T04:40:27.691Z,12.50
2019-04-16T04:46:33.499Z,13.87
2019-04-16T04:52:39.546Z,15.23
2019-04-16T04:58:45.581Z,12.83
2019-04-16T05:05:13.196Z,13.47
2019-04-16T05:11:19.172Z,14.10
2019-04-16T05:17:27.945Z,13.00
2019-04-16T05:23:37.638Z,13.13
2019-04-16T05:29:42.584Z,13.53
2019-04-16T05:35:48.304Z,13.53
2019-04-16T05:41:54.057Z,11.60
2019-04-16T05:47:59.844Z,12.77
2019-04-16T05:54:15.238Z,13.73
2019-04-16T06:00:38.490Z,13.27
2019-04-16T06:06:44.593Z,12.93
2019-04-16T06:13:05.238Z,11.77
2019-04-16T06:19:31.928Z,12.23
2019-04-16T06:25:54.040Z,11.70
2019-04-16T06:32:17.597Z,12.43
2019-04-16T06:38:48.194Z,14.43
2019-04-16T06:44:56.020Z,12.60
2019-04-16T06:51:20.805Z,12.70
2019-04-16T06:57:43.896Z,14.50
2019-04-16T07:03:59.708Z,11.73
2019-04-16T07:10:12.348Z,12.03
2019-04-16T07:16:18.339Z,13.70
2019-04-16T07:22:24.192Z,13.67
2019-04-16T07:28:44.795Z,11.97
2019-04-16T07:34:56.295Z,16.93
2019-04-16T07:41:32.977Z,14.07
2019-04-16T07:47:52.554Z,11.83
2019-04-16T07:54:13.979Z,12.20
2019-04-16T08:00:19.767Z,12.70
2019-04-16T08:06:25.600Z,12.43
2019-04-16T08:12:31.449Z,13.17
2019-04-16T08:18:47.936Z,11.97
2019-04-16T08:25:03.234Z,14.10
2019-04-16T08:31:12.288Z,13.03
2019-04-16T08:37:16.841Z,13.03
2019-04-16T08:43:22.580Z,13.13
2019-04-16T08:49:28.375Z,12.30
2019-04-16T08:55:34.377Z,12.37
2019-04-16T09:01:40.107Z,12.57
2019-04-16T09:07:50.637Z,12.70
2019-04-16T09:13:59.690Z,13.53
2019-04-16T09:20:11.714Z,14.23
2019-04-16T09:26:35.332Z,13.37
2019-04-16T09:32:51.212Z,13.73
2019-04-16T09:39:06.318Z,15.90
2019-04-16T09:45:15.679Z,13.63
2019-04-16T09:51:21.542Z,13.70
2019-04-16T09:57:31.043Z,14.40
2019-04-16T10:03:37.344Z,14.30
2019-04-16T10:09:43.171Z,13.73
2019-04-16T10:15:49.025Z,14.23
2019-04-16T10:22:13.837Z,14.50
2019-04-16T10:28:24.789Z,14.57
2019-04-16T10:34:30.696Z,15.00
2019-04-16T10:40:42.376Z,16.67
2019-04-16T10:47:16.709Z,14.53
2019-04-16T10:53:41.730Z,14.83
2019-04-16T11:00:09.371Z,14.97
2019-04-16T11:06:34.030Z,14.70
2019-04-16T11:12:40.386Z,12.73
2019-04-16T11:18:46.323Z,11.43
2019-04-16T11:24:52.195Z,12.27
2019-04-16T11:30:59.744Z,12.07
2019-04-16T11:37:08.069Z,11.40
2019-04-16T11:43:13.239Z,21.60
2019-04-16T11:49:19.042Z,12.90
2019-04-16T11:55:24.923Z,11.93
2019-04-16T12:01:46.582Z,11.87
2019-04-16T12:08:00.304Z,12.40
2019-04-16T12:14:30.653Z,11.27
2019-04-16T12:20:46.756Z,10.90
2019-04-16T12:27:14.014Z,12.40
2019-04-16T12:33:38.678Z,11.27
2019-04-16T12:40:18.573Z,10.50
2019-04-16T12:46:33.956Z,10.97
2019-04-16T12:52:55.859Z,10.37
2019-04-16T12:59:06.679Z,9.67
2019-04-16T13:05:23.645Z,9.20
2019-04-16T13:11:37.374Z,9.93
2019-04-16T13:18:13.925Z,8.70
2019-04-16T13:24:32.908Z,7.23
2019-04-16T13:30:38.886Z,8.00
2019-04-16T13:36:45.048Z,7.40
2019-04-16T13:42:50.998Z,6.30
2019-04-16T13:49:05.938Z,7.07
2019-04-16T13:55:38.362Z,7.00
2019-04-16T14:01:58.828Z,6.67
2019-04-16T14:08:03.354Z,7.25
2019-04-16T14:14:09.372Z,8.47
2019-04-16T14:20:15.686Z,9.20
2019-04-16T14:26:21.788Z,8.17
2019-04-16T14:32:27.946Z,7.60
2019-04-16T14:38:40.030Z,8.47
2019-04-16T14:44:52.652Z,8.37
2019-04-16T14:50:58.946Z,8.95
2019-04-16T14:57:10.180Z,8.77
2019-04-16T15:03:28.991Z,10.47
2019-04-16T15:10:02.311Z,10.17
2019-04-16T15:16:24.604Z,10.30
2019-04-16T15:22:55.299Z,11.60
2019-04-16T15:29:15.203Z,10.23
2019-04-16T15:35:25.938Z,11.60
2019-04-16T15:42:05.702Z,10.40
2019-04-16T15:48:30.701Z,9.60
2019-04-16T15:54:44.584Z,8.63
2019-04-16T16:01:07.840Z,8.88
2019-04-16T16:07:16.383Z,11.03
2019-04-16T16:13:22.857Z,8.38
2019-04-16T16:19:29.654Z,9.18
2019-04-16T16:25:35.759Z,8.30
2019-04-16T16:31:43.337Z,8.97
2019-04-16T16:37:49.055Z,9.10
2019-04-16T16:43:54.732Z,7.92
2019-04-16T16:50:01.006Z,9.00
2019-04-16T16:56:21.189Z,7.73
2019-04-16T17:02:35.580Z,7.67
2019-04-16T17:08:41.325Z,9.20
2019-04-16T17:14:47.021Z,6.00
2019-04-16T17:20:52.804Z,5.83
2019-04-16T17:26:58.592Z,6.40
2019-04-16T17:33:05.230Z,5.33
2019-04-16T17:39:12.211Z,5.27
2019-04-16T17:45:41.594Z,4.60
2019-04-16T17:51:53.796Z,4.33
2019-04-16T17:58:04.914Z,4.77
2019-04-16T18:04:26.088Z,4.37
2019-04-16T18:10:48.112Z,4.10
2019-04-16T18:17:08.880Z,3.50
2019-04-16T18:23:31.561Z,3.60
2019-04-16T18:29:48.333Z,3.10
2019-04-16T18:36:19.032Z,2.70
2019-04-16T18:42:38.769Z,2.30
2019-04-16T18:48:45.528Z,2.60
2019-04-16T18:54:51.495Z,1.93
2019-04-16T19:01:01.138Z,1.83
2019-04-16T19:07:07.000Z,1.80
2019-04-16T19:13:12.783Z,1.70
2019-04-16T19:19:21.915Z,1.50
2019-04-16T19:25:26.334Z,1.37
2019-04-16T19:31:32.256Z,1.57
2019-04-16T19:37:37.976Z,1.53
2019-04-16T19:43:44.072Z,1.43
2019-04-16T19:49:50.183Z,1.67
2019-04-16T19:55:56.341Z,1.60
2019-04-16T20:02:03.893Z,1.40
2019-04-16T20:08:10.180Z,1.50
2019-04-16T20:14:16.105Z,1.80
2019-04-16T20:20:22.048Z,1.70
2019-04-16T20:26:29.291Z,1.80
2019-04-16T20:32:35.361Z,1.60
2019-04-16T20:38:41.315Z,1.77
2019-04-16T20:44:47.175Z,1.60
2019-04-16T20:50:55.506Z,1.87
2019-04-16T20:57:00.839Z,1.80
2019-04-16T21:03:21.543Z,1.80
2019-04-16T21:09:14.248Z,1.60
2019-04-16T21:15:19.996Z,2.13
2019-04-16T21:21:25.747Z,2.20
2019-04-16T21:27:33.592Z,1.70
2019-04-16T21:33:52.217Z,2.13
2019-04-16T21:40:00.273Z,1.80
2019-04-16T21:46:25.041Z,1.90
2019-04-16T21:52:31.118Z,1.93
2019-04-16T21:58:36.879Z,2.10
2019-04-16T22:04:45.413Z,2.10
2019-04-16T22:10:53.263Z,2.30
2019-04-16T22:17:02.542Z,2.10
2019-04-16T22:23:07.107Z,2.27
2019-04-16T22:29:15.657Z,2.60
2019-04-16T22:35:20.448Z,1.90
2019-04-16T22:41:47.644Z,2.00
2019-04-16T22:47:53.547Z,2.27
2019-04-16T22:54:00.439Z,3.30
2019-04-16T23:00:12.989Z,3.30
2019-04-16T23:06:18.687Z,3.47
2019-04-16T23:12:27.466Z,2.87
2019-04-16T23:18:32.081Z,4.03
2019-04-16T23:24:37.956Z,3.77
2019-04-16T23:30:43.689Z,3.90
2019-04-16T23:36:49.762Z,3.30
2019-04-16T23:43:15.630Z,2.97
2019-04-16T23:49:45.635Z,3.50
2019-04-16T23:56:24.375Z,3.70
